Time;durP1;ratioP1;P1;durP2;ratioP2;P2;SDS_P1;SDS_P2;PMS_P1;PMS_P2;Temp;Humidity;BMP_temperature;BMP_pressure;BME280_temperature;BME280_humidity;BME280_pressure;Samples;Min_cycle;Max_cycle;Signal;HPM_P1;HPM_P2
2021/01/06 00:00:06;;;;;;;10.52;7.63;;;4.20;1.00;;;;;;4938285;28;20234;-78
2021/01/06 00:02:33;;;;;;;10.40;6.93;;;4.20;1.00;;;;;;4935220;28;20230;-80
2021/01/06 00:04:59;;;;;;;11.38;7.95;;;4.20;1.00;;;;;;4940522;28;20230;-78
2021/01/06 00:07:26;;;;;;;7.70;6.85;;;4.20;1.00;;;;;;4927977;28;20226;-80
2021/01/06 00:09:53;;;;;;;9.90;7.05;;;4.30;1.00;;;;;;4925031;29;20249;-82
2021/01/06 00:12:20;;;;;;;14.05;6.07;;;4.20;1.00;;;;;;4929909;28;20226;-79
2021/01/06 00:14:47;;;;;;;7.97;6.35;;;4.20;1.00;;;;;;4940253;28;20246;-86
2021/01/06 00:17:14;;;;;;;7.05;6.05;;;4.20;1.00;;;;;;4925006;29;21035;-85
2021/01/06 00:19:40;;;;;;;9.38;7.43;;;4.30;1.00;;;;;;4927121;28;21301;-84
2021/01/06 00:22:07;;;;;;;7.13;5.65;;;4.20;1.00;;;;;;4920404;29;20218;-81
2021/01/06 00:24:33;;;;;;;12.40;8.27;;;4.30;1.00;;;;;;4925159;28;21688;-80
2021/01/06 00:27:00;;;;;;;8.68;6.25;;;4.20;1.00;;;;;;4940041;29;20293;-84
2021/01/06 00:29:27;;;;;;;8.75;6.82;;;4.20;1.00;;;;;;4926708;28;20234;-81
2021/01/06 00:31:53;;;;;;;8.30;6.15;;;4.30;1.00;;;;;;4925299;29;20242;-85
2021/01/06 00:34:20;;;;;;;8.55;6.38;;;4.20;1.00;;;;;;4925198;29;20233;-84
2021/01/06 00:36:48;;;;;;;9.35;6.18;;;4.30;1.00;;;;;;4925535;29;20262;-83
2021/01/06 00:39:14;;;;;;;7.05;6.10;;;4.30;1.00;;;;;;4923226;29;20268;-83
2021/01/06 00:41:41;;;;;;;8.07;5.95;;;4.30;1.00;;;;;;4926195;29;20299;-83
2021/01/06 00:44:07;;;;;;;7.63;6.18;;;4.30;1.00;;;;;;4927069;29;20234;-82
2021/01/06 00:46:37;;;;;;;7.20;5.13;;;4.30;1.00;;;;;;4932970;29;20370;-81
2021/01/06 00:49:04;;;;;;;6.68;5.50;;;4.30;1.00;;;;;;4925685;29;20265;-83
2021/01/06 00:51:31;;;;;;;6.50;5.38;;;4.20;1.00;;;;;;4926815;29;20258;-82
2021/01/06 00:53:58;;;;;;;9.30;5.10;;;4.30;1.00;;;;;;4920604;29;20224;-82
2021/01/06 00:56:28;;;;;;;5.75;5.15;;;4.30;1.00;;;;;;4926533;29;20342;-83
2021/01/06 00:58:56;;;;;;;6.10;5.47;;;4.30;1.00;;;;;;4924289;28;20222;-81
2021/01/06 01:01:23;;;;;;;7.05;5.07;;;4.30;1.00;;;;;;4934303;29;20234;-82
2021/01/06 01:03:51;;;;;;;5.35;4.75;;;4.30;1.00;;;;;;4929146;28;20223;-79
2021/01/06 01:06:26;;;;;;;9.40;5.35;;;4.30;1.00;;;;;;4933723;29;20286;-81
2021/01/06 01:08:52;;;;;;;7.72;5.60;;;4.30;1.00;;;;;;4925544;29;20246;-80
2021/01/06 01:11:21;;;;;;;6.18;4.82;;;4.20;1.00;;;;;;4933977;28;20267;-81
2021/01/06 01:13:48;;;;;;;5.72;4.78;;;4.20;1.00;;;;;;4931192;29;20251;-80
2021/01/06 01:16:15;;;;;;;5.80;5.20;;;4.20;1.00;;;;;;4940729;28;20218;-78
2021/01/06 01:18:41;;;;;;;4.70;4.20;;;4.20;1.00;;;;;;4941359;28;20237;-80
2021/01/06 01:21:08;;;;;;;4.85;3.92;;;4.20;1.00;;;;;;4940881;28;20230;-80
2021/01/06 01:23:34;;;;;;;3.60;3.30;;;4.20;1.00;;;;;;4940845;28;20217;-80
2021/01/06 01:26:01;;;;;;;5.88;3.80;;;4.20;1.00;;;;;;4937265;28;20215;-77
2021/01/06 01:28:28;;;;;;;3.97;3.42;;;4.10;1.00;;;;;;4938580;28;20242;-78
2021/01/06 01:30:58;;;;;;;5.68;4.55;;;4.10;1.00;;;;;;4937977;29;20239;-84
2021/01/06 01:33:26;;;;;;;3.90;3.10;;;4.10;1.00;;;;;;4940109;29;20266;-81
2021/01/06 01:35:53;;;;;;;4.65;3.75;;;4.20;1.00;;;;;;4936637;28;20279;-82
2021/01/06 01:38:23;;;;;;;5.35;3.80;;;4.20;1.00;;;;;;4934859;29;20230;-81
2021/01/06 01:40:58;;;;;;;4.47;3.67;;;4.10;1.00;;;;;;4942947;29;20221;-83
2021/01/06 01:43:26;;;;;;;3.92;3.15;;;4.10;1.00;;;;;;4926654;29;20238;-83
2021/01/06 01:46:35;;;;;;;4.47;3.10;;;4.10;1.00;;;;;;4928013;29;20218;-82
2021/01/06 01:49:06;;;;;;;3.63;2.60;;;4.00;1.00;;;;;;4938011;28;20233;-83
2021/01/06 01:51:39;;;;;;;4.00;3.33;;;4.00;1.00;;;;;;4938433;29;20230;-84
2021/01/06 01:54:08;;;;;;;4.80;2.92;;;4.00;1.00;;;;;;4926301;29;21175;-85
2021/01/06 01:56:43;;;;;;;3.28;2.53;;;4.00;1.00;;;;;;4927273;29;20234;-84
2021/01/06 01:59:15;;;;;;;3.50;2.50;;;4.00;1.00;;;;;;4925936;29;20225;-84
2021/01/06 02:01:44;;;;;;;3.55;2.67;;;4.00;1.00;;;;;;4925778;29;20230;-82
2021/01/06 02:04:15;;;;;;;3.60;2.90;;;3.90;1.00;;;;;;4937242;28;20440;-85
2021/01/06 02:06:47;;;;;;;3.25;2.95;;;3.90;1.00;;;;;;4937608;28;20290;-85
2021/01/06 02:09:21;;;;;;;3.00;2.35;;;4.00;1.00;;;;;;4939937;28;20218;-85
2021/01/06 02:11:56;;;;;;;3.22;2.45;;;4.00;1.00;;;;;;4937130;28;20233;-84
2021/01/06 02:14:28;;;;;;;3.25;2.70;;;4.00;1.00;;;;;;4927303;29;20277;-82
2021/01/06 02:17:01;;;;;;;4.13;2.65;;;4.00;1.00;;;;;;4920149;29;20230;-84
2021/01/06 02:19:31;;;;;;;2.95;2.20;;;3.90;1.00;;;;;;4937182;29;20226;-83
2021/01/06 02:21:59;;;;;;;3.58;2.78;;;3.90;1.00;;;;;;4920854;28;20236;-84
2021/01/06 02:24:29;;;;;;;2.83;2.42;;;4.00;1.00;;;;;;4939636;28;20229;-84
2021/01/06 02:26:55;;;;;;;2.33;2.13;;;3.90;1.00;;;;;;4923980;28;20314;-84
2021/01/06 02:29:22;;;;;;;3.20;2.70;;;3.90;1.00;;;;;;4920964;29;20234;-83
2021/01/06 02:31:49;;;;;;;2.97;2.50;;;3.90;1.00;;;;;;4916605;29;21046;-84
2021/01/06 02:34:18;;;;;;;2.63;2.17;;;3.90;1.00;;;;;;4920098;29;20227;-84
2021/01/06 02:36:45;;;;;;;2.55;2.20;;;3.90;1.00;;;;;;4919885;29;20233;-84
2021/01/06 02:39:14;;;;;;;2.00;1.80;;;3.90;1.00;;;;;;4920286;29;20254;-83
2021/01/06 02:41:41;;;;;;;2.20;1.73;;;3.90;1.00;;;;;;4918912;29;20234;-84
2021/01/06 02:44:09;;;;;;;2.33;2.13;;;3.80;1.00;;;;;;4914418;29;20235;-83
2021/01/06 02:46:37;;;;;;;2.90;2.00;;;3.90;1.00;;;;;;4918339;29;20330;-84
2021/01/06 02:49:05;;;;;;;2.85;2.30;;;3.90;1.00;;;;;;4909730;29;21057;-84
2021/01/06 02:51:39;;;;;;;2.88;2.67;;;3.80;1.00;;;;;;4918535;29;20304;-83
2021/01/06 02:54:08;;;;;;;3.33;2.47;;;3.80;1.00;;;;;;4910009;29;20237;-83
2021/01/06 02:56:38;;;;;;;3.13;2.50;;;3.80;1.00;;;;;;4918944;29;20230;-84
2021/01/06 02:59:06;;;;;;;2.75;2.50;;;3.70;1.00;;;;;;4912149;29;20228;-83
2021/01/06 03:01:37;;;;;;;2.90;2.30;;;3.80;1.00;;;;;;4920243;29;20289;-81
2021/01/06 03:04:08;;;;;;;2.95;2.05;;;3.80;1.00;;;;;;4914813;29;20223;-81
2021/01/06 03:06:40;;;;;;;3.65;2.35;;;3.80;1.00;;;;;;4920967;29;20241;-84
2021/01/06 03:09:30;;;;;;;3.42;2.28;;;3.80;1.00;;;;;;4914840;28;20238;-83
2021/01/06 03:12:01;;;;;;;2.72;2.00;;;3.80;1.00;;;;;;4917233;29;20594;-83
2021/01/06 03:14:28;;;;;;;2.95;2.63;;;3.80;1.00;;;;;;4916249;29;20240;-82
2021/01/06 03:16:56;;;;;;;1.75;1.63;;;3.80;1.00;;;;;;4921003;28;20233;-82
2021/01/06 03:19:25;;;;;;;2.20;1.95;;;3.80;1.00;;;;;;4915453;29;20295;-83
2021/01/06 03:21:54;;;;;;;5.20;2.10;;;3.70;1.00;;;;;;4918322;29;20214;-82
2021/01/06 03:24:27;;;;;;;2.13;1.92;;;3.70;1.00;;;;;;4910686;29;20788;-81
2021/01/06 03:27:00;;;;;;;1.70;1.60;;;3.70;1.00;;;;;;4918044;29;20286;-82
2021/01/06 03:29:29;;;;;;;1.83;1.60;;;3.70;1.00;;;;;;4914894;29;20230;-83
2021/01/06 03:31:59;;;;;;;2.72;2.10;;;3.70;1.00;;;;;;4917867;29;20234;-83
2021/01/06 03:34:29;;;;;;;2.13;1.92;;;3.70;1.00;;;;;;4912230;29;20230;-83
2021/01/06 03:37:04;;;;;;;5.60;5.10;;;3.70;1.00;;;;;;4912467;29;20697;-83
2021/01/06 03:39:35;;;;;;;2.20;1.70;;;3.70;1.00;;;;;;4919244;29;20837;-84
2021/01/06 03:42:03;;;;;;;2.15;1.60;;;3.70;1.00;;;;;;4933786;29;20318;-84
2021/01/06 03:44:31;;;;;;;2.28;1.38;;;3.70;1.00;;;;;;4933759;29;20275;-83
2021/01/06 03:47:04;;;;;;;2.58;1.88;;;3.60;1.00;;;;;;4931886;29;20234;-83
2021/01/06 03:49:47;;;;;;;1.83;1.35;;;3.60;1.00;;;;;;4921045;29;20291;-83
2021/01/06 03:52:21;;;;;;;2.33;1.55;;;3.60;1.00;;;;;;4922367;28;20226;-82
2021/01/06 03:54:56;;;;;;;2.85;1.65;;;3.60;1.00;;;;;;4918135;29;20245;-81
2021/01/06 03:57:26;;;;;;;3.53;1.60;;;3.60;1.00;;;;;;4915282;29;20289;-83
2021/01/06 03:59:54;;;;;;;4.47;1.90;;;3.50;1.00;;;;;;4915659;29;20728;-82
2021/01/06 04:02:25;;;;;;;2.70;1.80;;;3.60;1.00;;;;;;4909097;29;20780;-83
2021/01/06 04:04:56;;;;;;;2.00;1.80;;;3.50;1.00;;;;;;4918697;29;20333;-82
2021/01/06 04:07:29;;;;;;;1.60;1.33;;;3.60;1.00;;;;;;4917224;29;20230;-82
2021/01/06 04:10:00;;;;;;;1.77;1.25;;;3.50;1.00;;;;;;4918892;29;20241;-83
2021/01/06 04:12:28;;;;;;;2.28;2.00;;;3.50;1.00;;;;;;4920821;29;20250;-84
2021/01/06 04:14:54;;;;;;;2.88;1.35;;;3.50;1.00;;;;;;4919474;29;20230;-82
2021/01/06 04:17:28;;;;;;;2.92;1.58;;;3.50;1.00;;;;;;4911301;29;20280;-83
2021/01/06 04:19:57;;;;;;;2.00;1.00;;;3.40;1.00;;;;;;4919284;29;20282;-82
2021/01/06 04:22:42;;;;;;;2.60;1.90;;;3.40;1.00;;;;;;4916582;29;20231;-82
2021/01/06 04:25:18;;;;;;;2.28;1.40;;;3.50;1.00;;;;;;4907103;29;20238;-83
2021/01/06 04:27:47;;;;;;;1.83;1.40;;;3.40;1.00;;;;;;4915706;29;20237;-81
2021/01/06 04:30:22;;;;;;;1.50;1.20;;;3.40;1.00;;;;;;4930089;28;20251;-83
2021/01/06 04:32:48;;;;;;;1.80;1.10;;;3.40;1.00;;;;;;4936821;28;20245;-82
2021/01/06 04:35:15;;;;;;;1.85;1.20;;;3.40;1.00;;;;;;4940308;29;20210;-83
2021/01/06 04:37:41;;;;;;;3.10;1.90;;;3.40;1.00;;;;;;4926035;29;20287;-83
2021/01/06 04:40:09;;;;;;;3.67;1.70;;;3.40;1.00;;;;;;4921757;29;20236;-82
2021/01/06 04:42:37;;;;;;;2.78;1.25;;;3.40;1.00;;;;;;4951099;28;20294;-83
2021/01/06 04:45:09;;;;;;;2.60;1.40;;;3.30;1.00;;;;;;4939964;28;20425;-84
2021/01/06 04:48:11;;;;;;;1.65;1.38;;;3.30;1.00;;;;;;4933325;28;20263;-83
2021/01/06 04:51:14;;;;;;;1.70;1.50;;;3.30;1.00;;;;;;4924241;29;20297;-83
2021/01/06 04:54:04;;;;;;;2.38;2.17;;;3.30;1.00;;;;;;4916225;29;20226;-81
2021/01/06 04:56:50;;;;;;;2.65;1.50;;;3.30;1.00;;;;;;4935487;29;20235;-82
2021/01/06 04:59:29;;;;;;;3.08;2.10;;;3.30;1.00;;;;;;4914454;28;20234;-81
2021/01/06 05:02:15;;;;;;;1.77;1.40;;;3.30;1.00;;;;;;4923776;28;20306;-84
2021/01/06 05:05:23;;;;;;;3.22;1.95;;;3.30;1.00;;;;;;4933502;28;20266;-83
2021/01/06 05:08:02;;;;;;;4.15;1.63;;;3.30;1.00;;;;;;4928004;29;20226;-83
2021/01/06 05:10:37;;;;;;;1.75;1.20;;;3.40;1.00;;;;;;4923632;29;20230;-82
2021/01/06 05:13:16;;;;;;;1.50;1.40;;;3.30;1.00;;;;;;4914200;29;20374;-82
2021/01/06 05:15:46;;;;;;;1.55;1.20;;;3.30;1.00;;;;;;4916679;29;20234;-81
2021/01/06 05:18:13;;;;;;;2.90;1.60;;;3.30;1.00;;;;;;4916997;29;20241;-83
2021/01/06 05:20:40;;;;;;;2.13;1.45;;;3.30;1.00;;;;;;4919459;29;20713;-83
2021/01/06 05:23:15;;;;;;;2.10;1.90;;;3.30;1.00;;;;;;4922014;29;20237;-83
2021/01/06 05:25:41;;;;;;;6.35;4.90;;;3.30;1.00;;;;;;4920634;29;20320;-81
2021/01/06 05:28:15;;;;;;;1.52;1.40;;;3.30;1.00;;;;;;4919760;29;21037;-83
2021/01/06 05:30:47;;;;;;;7.97;7.22;;;3.20;1.00;;;;;;4915757;29;20715;-84
2021/01/06 05:33:23;;;;;;;3.05;2.08;;;3.20;1.00;;;;;;4921871;29;20337;-84
2021/01/06 05:35:49;;;;;;;2.60;1.52;;;3.20;1.00;;;;;;4920967;29;20256;-83
2021/01/06 05:38:16;;;;;;;3.25;1.38;;;3.30;1.00;;;;;;4925517;29;20283;-85
2021/01/06 05:40:43;;;;;;;3.22;1.55;;;3.20;1.00;;;;;;4924574;29;20238;-83
2021/01/06 05:43:22;;;;;;;2.03;1.50;;;3.20;1.00;;;;;;4923412;29;20285;-83
2021/01/06 05:45:53;;;;;;;1.38;1.25;;;3.20;1.00;;;;;;4922334;29;21055;-83
2021/01/06 05:48:22;;;;;;;2.08;1.60;;;3.20;1.00;;;;;;4919950;29;21020;-84
2021/01/06 05:50:58;;;;;;;3.42;2.97;;;3.20;1.00;;;;;;4918982;29;20242;-83
2021/01/06 05:53:38;;;;;;;3.50;2.00;;;3.20;1.00;;;;;;4917500;29;20241;-82
2021/01/06 05:56:17;;;;;;;1.15;0.85;;;3.20;1.00;;;;;;4916509;29;20249;-83
2021/01/06 05:58:52;;;;;;;1.60;1.27;;;3.20;1.00;;;;;;4920063;29;20246;-84
2021/01/06 06:01:31;;;;;;;1.00;0.90;;;3.20;1.00;;;;;;4918406;29;20670;-84
2021/01/06 06:04:17;;;;;;;1.05;0.95;;;3.20;1.00;;;;;;4920630;29;20219;-84
2021/01/06 06:06:57;;;;;;;1.23;1.02;;;3.20;1.00;;;;;;4914638;28;21066;-84
2021/01/06 06:09:41;;;;;;;1.05;0.80;;;3.20;1.00;;;;;;4917350;29;20246;-81
2021/01/06 06:12:39;;;;;;;3.03;2.03;;;3.10;1.00;;;;;;4915753;29;20256;-82
2021/01/06 06:15:40;;;;;;;1.40;1.30;;;3.10;1.00;;;;;;4918483;29;20242;-84
2021/01/06 06:18:43;;;;;;;2.10;1.67;;;3.00;1.00;;;;;;4906411;29;20257;-83
2021/01/06 06:21:27;;;;;;;2.90;1.80;;;3.00;1.00;;;;;;4909719;29;20222;-84
2021/01/06 06:24:11;;;;;;;3.05;1.67;;;2.90;1.00;;;;;;4923323;29;20264;-82
2021/01/06 06:26:45;;;;;;;2.25;1.25;;;2.90;1.00;;;;;;4919938;29;20229;-82
2021/01/06 06:29:20;;;;;;;2.05;1.40;;;2.90;1.00;;;;;;4924194;29;20237;-84
2021/01/06 06:31:51;;;;;;;2.15;1.90;;;2.90;1.00;;;;;;4921293;29;20234;-82
2021/01/06 06:34:27;;;;;;;1.80;1.45;;;2.80;1.00;;;;;;4927543;29;20234;-83
2021/01/06 06:37:09;;;;;;;2.63;1.80;;;2.90;1.00;;;;;;4916598;29;20234;-79
2021/01/06 06:39:39;;;;;;;1.85;1.60;;;2.80;1.00;;;;;;4940586;28;20471;-77
2021/01/06 06:42:17;;;;;;;3.35;2.28;;;2.90;1.00;;;;;;4933904;28;20295;-78
2021/01/06 06:44:57;;;;;;;2.92;1.50;;;2.80;1.00;;;;;;4933068;28;20218;-77
2021/01/06 06:47:43;;;;;;;1.70;1.60;;;2.80;1.00;;;;;;4929203;28;20258;-82
2021/01/06 06:50:43;;;;;;;1.73;1.58;;;2.70;1.00;;;;;;4925011;29;20237;-83
2021/01/06 06:53:20;;;;;;;1.83;1.55;;;2.70;1.00;;;;;;4920837;29;20285;-82
2021/01/06 06:55:56;;;;;;;1.90;1.30;;;2.70;1.00;;;;;;4927568;29;20336;-81
2021/01/06 06:58:39;;;;;;;2.55;1.65;;;2.60;1.00;;;;;;4928727;28;20213;-78
2021/01/06 07:01:09;;;;;;;2.70;1.80;;;2.60;1.00;;;;;;4934780;28;20266;-79
2021/01/06 07:03:39;;;;;;;2.15;1.50;;;2.60;1.00;;;;;;4931860;29;20222;-78
2021/01/06 07:06:10;;;;;;;1.98;1.48;;;2.60;1.00;;;;;;4933419;28;20234;-82
2021/01/06 07:08:43;;;;;;;2.65;1.60;;;2.60;1.00;;;;;;4921990;29;20294;-81
2021/01/06 07:11:24;;;;;;;3.35;1.92;;;2.60;1.00;;;;;;4919100;29;20289;-83
2021/01/06 07:13:56;;;;;;;2.10;1.90;;;2.60;1.00;;;;;;4916322;29;20230;-84
2021/01/06 07:16:30;;;;;;;3.47;2.95;;;2.60;1.00;;;;;;4921296;29;20218;-81
2021/01/06 07:19:13;;;;;;;2.05;1.77;;;2.60;1.00;;;;;;4929055;28;20285;-78
2021/01/06 07:21:40;;;;;;;4.07;2.42;;;2.60;1.00;;;;;;4926215;29;20249;-79
2021/01/06 07:24:17;;;;;;;3.78;2.70;;;2.60;1.00;;;;;;4921992;29;20230;-79
2021/01/06 07:26:47;;;;;;;3.33;3.03;;;2.60;1.00;;;;;;4924797;29;20241;-80
2021/01/06 07:29:15;;;;;;;3.90;2.10;;;2.60;1.00;;;;;;4921583;29;20289;-80
2021/01/06 07:31:52;;;;;;;5.03;3.22;;;2.60;1.00;;;;;;4928449;29;20237;-83
2021/01/06 07:34:22;;;;;;;3.33;2.45;;;2.60;1.00;;;;;;4917027;29;20265;-82
2021/01/06 07:36:52;;;;;;;2.60;2.40;;;2.60;1.00;;;;;;4926119;29;20305;-80
2021/01/06 07:39:22;;;;;;;3.13;2.83;;;2.60;1.00;;;;;;4918140;29;20222;-84
2021/01/06 07:41:49;;;;;;;2.50;2.30;;;2.60;1.00;;;;;;4925989;29;20226;-81
2021/01/06 07:44:25;;;;;;;3.38;2.63;;;2.50;1.00;;;;;;4913965;29;20258;-81
2021/01/06 07:47:03;;;;;;;2.90;2.00;;;2.50;1.00;;;;;;4922661;29;21051;-81
2021/01/06 07:49:42;;;;;;;4.60;4.03;;;2.60;1.00;;;;;;4919397;29;20279;-86
2021/01/06 07:52:40;;;;;;;4.57;3.00;;;2.60;1.00;;;;;;4936591;28;20286;-86
2021/01/06 07:58:54;;;;;;;5.53;2.50;;;2.70;1.00;;;;;;4935924;28;20243;-84
2021/01/06 08:01:34;;;;;;;3.13;1.90;;;2.80;1.00;;;;;;4939230;28;20238;-86
2021/01/06 08:04:12;;;;;;;2.45;2.25;;;2.70;1.00;;;;;;4937441;28;20222;-85
2021/01/06 08:06:47;;;;;;;3.45;2.58;;;2.80;1.00;;;;;;4931431;29;20238;-85
2021/01/06 08:09:30;;;;;;;2.60;2.40;;;2.80;1.00;;;;;;4929445;29;20289;-84
2021/01/06 08:11:57;;;;;;;5.57;3.65;;;2.90;1.00;;;;;;4921515;29;20227;-84
2021/01/06 08:14:29;;;;;;;2.95;2.45;;;2.90;1.00;;;;;;4922480;29;20266;-83
2021/01/06 08:16:59;;;;;;;3.00;2.70;;;2.80;1.00;;;;;;4921796;29;20241;-84
2021/01/06 08:19:31;;;;;;;2.83;2.63;;;2.80;1.00;;;;;;4923266;29;20229;-83
2021/01/06 08:22:03;;;;;;;2.58;2.38;;;2.70;1.00;;;;;;4919606;29;20368;-84
2021/01/06 08:24:35;;;;;;;5.00;3.58;;;2.70;1.00;;;;;;4927545;29;21038;-84
2021/01/06 08:27:03;;;;;;;3.90;2.40;;;2.70;1.00;;;;;;4915099;29;20239;-84
2021/01/06 08:29:34;;;;;;;4.38;2.70;;;2.70;1.00;;;;;;4917918;29;20249;-87
2021/01/06 08:32:06;;;;;;;4.07;2.83;;;2.70;1.00;;;;;;4921277;29;20410;-84
2021/01/06 08:34:36;;;;;;;5.03;2.75;;;2.80;1.00;;;;;;4923893;29;21605;-83
2021/01/06 08:37:06;;;;;;;3.60;3.05;;;2.70;1.00;;;;;;4921042;29;20286;-82
2021/01/06 08:39:39;;;;;;;3.30;3.00;;;2.80;1.00;;;;;;4923966;29;20602;-83
2021/01/06 08:42:19;;;;;;;2.33;2.13;;;2.80;1.00;;;;;;4924496;29;20389;-84
2021/01/06 08:44:55;;;;;;;5.53;2.80;;;2.80;1.00;;;;;;4930853;29;20248;-81
2021/01/06 08:47:33;;;;;;;2.85;2.20;;;2.90;1.00;;;;;;4937610;28;20278;-88
2021/01/06 08:50:30;;;;;;;3.20;2.67;;;2.90;1.00;;;;;;5033737;23;20222;-86
2021/01/06 08:52:59;;;;;;;4.10;3.70;;;2.80;1.00;;;;;;4945625;29;20672;-87
2021/01/06 08:55:28;;;;;;;3.30;2.90;;;2.90;1.00;;;;;;4928655;29;20238;-82
2021/01/06 08:58:41;;;;;;;3.70;2.42;;;2.90;1.00;;;;;;4926439;29;20206;-83
2021/01/06 09:01:20;;;;;;;3.15;2.42;;;3.00;1.00;;;;;;4932512;29;20222;-85
2021/01/06 09:03:58;;;;;;;2.53;2.33;;;3.00;1.00;;;;;;4930593;29;20234;-83
2021/01/06 09:06:26;;;;;;;3.95;2.70;;;3.00;1.00;;;;;;4925696;29;20265;-83
2021/01/06 09:08:55;;;;;;;2.58;2.38;;;3.00;1.00;;;;;;4921031;28;20226;-81
2021/01/06 09:11:27;;;;;;;3.25;2.28;;;3.00;1.00;;;;;;4931192;28;20416;-83
2021/01/06 09:14:05;;;;;;;2.42;2.15;;;3.00;1.00;;;;;;4931047;28;20231;-82
2021/01/06 09:16:46;;;;;;;4.85;2.97;;;3.00;1.00;;;;;;4936842;28;20310;-81
2021/01/06 09:19:20;;;;;;;3.15;2.42;;;3.00;1.00;;;;;;4930069;28;20213;-82
2021/01/06 09:21:47;;;;;;;3.55;3.25;;;3.00;1.00;;;;;;4931698;28;20230;-83
2021/01/06 09:24:18;;;;;;;3.15;2.85;;;3.10;1.00;;;;;;4922982;29;20223;-79
2021/01/06 09:26:47;;;;;;;3.40;3.10;;;3.20;1.00;;;;;;4921483;29;20226;-82
2021/01/06 09:29:17;;;;;;;3.45;2.58;;;3.30;1.00;;;;;;4916211;29;20387;-83
2021/01/06 09:31:47;;;;;;;2.88;2.63;;;3.40;1.00;;;;;;4917860;29;22256;-82
2021/01/06 09:34:16;;;;;;;4.30;3.10;;;3.50;1.00;;;;;;4919827;29;20237;-82
2021/01/06 09:36:47;;;;;;;3.80;3.50;;;3.50;1.00;;;;;;4926475;29;20741;-82
2021/01/06 09:39:17;;;;;;;4.68;3.58;;;3.50;1.00;;;;;;4917286;29;20459;-82
2021/01/06 09:41:44;;;;;;;3.55;3.25;;;3.50;1.00;;;;;;4927177;28;21089;-83
2021/01/06 09:44:12;;;;;;;2.92;2.70;;;3.50;1.00;;;;;;4922211;29;20225;-82
2021/01/06 09:46:50;;;;;;;5.85;5.20;;;3.50;1.00;;;;;;4924843;29;20261;-82
2021/01/06 09:49:23;;;;;;;3.05;2.60;;;3.60;1.00;;;;;;4921068;29;20242;-82
2021/01/06 09:51:55;;;;;;;4.05;3.25;;;3.50;1.00;;;;;;4918250;29;20234;-83
2021/01/06 09:54:24;;;;;;;5.45;4.60;;;3.50;1.00;;;;;;4922687;29;20234;-83
2021/01/06 09:56:51;;;;;;;4.55;3.40;;;3.50;1.00;;;;;;4923840;29;20215;-84
2021/01/06 09:59:23;;;;;;;4.78;3.35;;;3.60;1.00;;;;;;4927020;29;20279;-83
2021/01/06 10:01:57;;;;;;;6.05;5.25;;;3.60;1.00;;;;;;4928021;28;20242;-84
2021/01/06 10:04:27;;;;;;;3.42;3.13;;;3.60;1.00;;;;;;4947615;28;20214;-84
2021/01/06 10:07:21;;;;;;;4.90;3.80;;;3.60;1.00;;;;;;4926680;29;20252;-84
2021/01/06 10:09:54;;;;;;;3.15;2.88;;;3.60;1.00;;;;;;4934722;29;20305;-83
2021/01/06 10:12:43;;;;;;;3.40;3.10;;;3.60;1.00;;;;;;4924479;29;20301;-85
2021/01/06 10:15:52;;;;;;;2.92;2.72;;;3.60;1.00;;;;;;4927732;29;20311;-85
2021/01/06 10:18:37;;;;;;;3.88;3.58;;;3.60;1.00;;;;;;4835467;29;20244;-83
2021/01/06 10:21:14;;;;;;;3.70;3.40;;;3.60;1.00;;;;;;4841343;29;20244;-82
2021/01/06 10:24:01;;;;;;;4.07;3.78;;;3.60;1.00;;;;;;4909641;28;20222;-84
2021/01/06 10:26:41;;;;;;;4.78;3.88;;;3.60;1.00;;;;;;4926804;29;20238;-83
2021/01/06 10:29:16;;;;;;;4.68;3.10;;;3.60;1.00;;;;;;4925665;29;20242;-85
2021/01/06 10:32:06;;;;;;;4.18;3.10;;;3.60;1.00;;;;;;4922486;29;20381;-85
2021/01/06 10:34:38;;;;;;;3.85;3.40;;;3.60;1.00;;;;;;4926246;29;20231;-86
2021/01/06 10:37:19;;;;;;;2.05;1.90;;;3.60;1.00;;;;;;4921075;29;20252;-85
2021/01/06 10:39:49;;;;;;;2.10;1.98;;;3.60;1.00;;;;;;4928201;29;20226;-85
2021/01/06 10:42:29;;;;;;;3.50;2.22;;;3.60;1.00;;;;;;4913905;29;20378;-86
2021/01/06 10:44:59;;;;;;;2.25;1.85;;;3.60;1.00;;;;;;4916613;29;20305;-85
2021/01/06 10:47:28;;;;;;;1.90;1.80;;;3.50;1.00;;;;;;4917569;29;20359;-85
2021/01/06 10:49:58;;;;;;;2.00;1.80;;;3.50;1.00;;;;;;4922429;29;20297;-85
2021/01/06 10:52:44;;;;;;;1.70;1.60;;;3.40;1.00;;;;;;4921003;29;20222;-85
2021/01/06 10:55:24;;;;;;;2.60;2.40;;;3.40;1.00;;;;;;4939010;28;20218;-85
2021/01/06 10:57:56;;;;;;;2.70;2.05;;;3.40;1.00;;;;;;4927709;28;20229;-85
2021/01/06 11:00:25;;;;;;;1.75;1.60;;;3.30;1.00;;;;;;4921325;29;20646;-85
2021/01/06 11:03:15;;;;;;;2.67;2.17;;;3.30;1.00;;;;;;4919816;29;20210;-84
2021/01/06 11:06:00;;;;;;;3.00;2.40;;;3.30;1.00;;;;;;4917447;29;20227;-82
2021/01/06 11:08:56;;;;;;;3.28;2.70;;;3.40;1.00;;;;;;4917282;29;20225;-83
2021/01/06 11:11:42;;;;;;;4.32;4.03;;;3.40;1.00;;;;;;4913704;29;20242;-84
2021/01/06 11:14:52;;;;;;;4.40;4.00;;;3.50;1.00;;;;;;4927940;28;20214;-82
2021/01/06 11:21:16;;;;;;;3.25;3.05;;;3.50;1.00;;;;;;4918501;28;20315;-83
2021/01/06 11:23:52;;;;;;;2.70;2.35;;;3.40;1.00;;;;;;4918643;29;21112;-82
2021/01/06 11:26:48;;;;;;;2.88;2.65;;;3.50;1.00;;;;;;4914629;29;20230;-81
2021/01/06 11:29:45;;;;;;;2.30;2.08;;;3.40;1.00;;;;;;4920267;29;20350;-83
2021/01/06 11:32:43;;;;;;;2.63;2.42;;;3.50;1.00;;;;;;4915839;29;20257;-82
2021/01/06 11:35:24;;;;;;;3.40;2.22;;;3.50;1.00;;;;;;4918547;29;20237;-82
2021/01/06 11:37:52;;;;;;;3.33;2.75;;;3.50;1.00;;;;;;4926041;28;20328;-82
2021/01/06 11:40:48;;;;;;;6.47;4.80;;;3.50;1.00;;;;;;4921013;29;20281;-82
2021/01/06 11:43:49;;;;;;;3.33;2.97;;;3.50;1.00;;;;;;4881171;29;20223;-83
2021/01/06 11:49:04;;;;;;;5.15;3.97;;;3.60;1.00;;;;;;5039222;23;20784;-83
2021/01/06 11:51:35;;;;;;;3.30;3.00;;;3.70;1.00;;;;;;4969297;28;20267;-84
2021/01/06 11:54:21;;;;;;;3.50;3.20;;;3.70;1.00;;;;;;4951770;28;20268;-83
2021/01/06 11:56:53;;;;;;;12.30;7.78;;;3.70;1.00;;;;;;4953398;29;20291;-83
2021/01/06 11:59:31;;;;;;;2.90;2.60;;;3.70;1.00;;;;;;4953229;28;20226;-77
2021/01/06 12:02:12;;;;;;;4.25;3.85;;;3.70;1.00;;;;;;4945591;28;20240;-74
2021/01/06 12:05:08;;;;;;;3.75;3.38;;;3.70;1.00;;;;;;4937773;28;20249;-75
2021/01/06 12:08:16;;;;;;;4.38;3.50;;;4.00;1.00;;;;;;4912270;29;20256;-83
2021/01/06 12:10:54;;;;;;;2.90;2.65;;;4.90;1.00;;;;;;4857849;29;20256;-85
2021/01/06 12:13:29;;;;;;;3.33;2.65;;;4.90;1.00;;;;;;4937824;28;20235;-84
2021/01/06 12:16:06;;;;;;;2.50;1.80;;;4.80;1.00;;;;;;4943528;29;20243;-82
2021/01/06 12:19:04;;;;;;;2.40;2.20;;;4.60;1.00;;;;;;4947312;28;20289;-83
2021/01/06 12:21:45;;;;;;;2.70;2.20;;;4.40;1.00;;;;;;4927710;28;20225;-83
2021/01/06 12:24:49;;;;;;;4.70;3.70;;;4.30;1.00;;;;;;4942523;28;20310;-84
2021/01/06 12:27:52;;;;;;;4.57;3.60;;;4.10;1.00;;;;;;4904083;29;20213;-84
2021/01/06 12:33:36;;;;;;;2.40;2.20;;;4.00;1.00;;;;;;4958537;23;20234;-81
2021/01/06 12:36:20;;;;;;;3.10;2.35;;;3.90;1.00;;;;;;4922035;29;20218;-82
2021/01/06 12:38:48;;;;;;;3.05;2.40;;;3.80;1.00;;;;;;4922748;29;20293;-80
2021/01/06 12:41:19;;;;;;;3.05;2.28;;;3.70;1.00;;;;;;4923932;29;20317;-81
2021/01/06 12:43:52;;;;;;;3.95;3.30;;;3.70;1.00;;;;;;4928640;29;21262;-83
2021/01/06 12:46:34;;;;;;;4.25;3.85;;;3.70;1.00;;;;;;4938218;28;20218;-82
2021/01/06 12:49:22;;;;;;;3.35;2.28;;;3.70;1.00;;;;;;4930631;29;20245;-80
2021/01/06 12:52:14;;;;;;;2.40;2.15;;;3.70;1.00;;;;;;4937109;29;20245;-83
2021/01/06 12:54:44;;;;;;;3.53;2.80;;;3.70;1.00;;;;;;4935864;29;20214;-83
2021/01/06 12:57:19;;;;;;;3.30;2.72;;;3.70;1.00;;;;;;4937751;29;20257;-86
2021/01/06 12:59:52;;;;;;;4.57;3.90;;;3.70;1.00;;;;;;4929927;29;21477;-84
2021/01/06 13:02:30;;;;;;;6.30;5.22;;;3.70;1.00;;;;;;4928367;29;20310;-85
2021/01/06 13:05:10;;;;;;;4.82;4.13;;;3.70;1.00;;;;;;4933682;29;20218;-83
2021/01/06 13:07:39;;;;;;;7.57;3.63;;;3.70;1.00;;;;;;4939649;28;20238;-81
2021/01/06 13:10:22;;;;;;;4.15;3.75;;;3.70;1.00;;;;;;4933475;28;20242;-82
2021/01/06 13:12:57;;;;;;;5.47;4.97;;;3.70;1.00;;;;;;4932587;29;20242;-82
2021/01/06 13:15:30;;;;;;;4.78;4.38;;;3.80;1.00;;;;;;4937315;28;20281;-86
2021/01/06 13:18:10;;;;;;;4.15;3.83;;;3.80;1.00;;;;;;4937559;28;20234;-84
2021/01/06 13:20:45;;;;;;;5.25;4.75;;;3.70;1.00;;;;;;4937211;28;20214;-82
2021/01/06 13:23:33;;;;;;;6.00;4.50;;;3.70;1.00;;;;;;4940507;28;21039;-83
2021/01/06 13:26:16;;;;;;;4.53;4.10;;;3.70;1.00;;;;;;4931751;29;20241;-83
2021/01/06 13:28:51;;;;;;;6.72;5.57;;;3.70;1.00;;;;;;4928474;29;20242;-83
2021/01/06 13:31:33;;;;;;;4.28;3.88;;;3.70;1.00;;;;;;4927260;29;20277;-83
2021/01/06 13:34:15;;;;;;;5.40;5.00;;;3.60;1.00;;;;;;4921343;29;20294;-82
2021/01/06 13:36:46;;;;;;;5.20;4.70;;;3.60;1.00;;;;;;4918620;29;20229;-81
2021/01/06 13:39:35;;;;;;;5.82;5.22;;;3.50;1.00;;;;;;4921572;29;20432;-84
2021/01/06 13:42:30;;;;;;;5.90;5.40;;;3.50;1.00;;;;;;4925843;29;20237;-82
2021/01/06 13:45:08;;;;;;;5.30;4.90;;;3.50;1.00;;;;;;4914613;29;20313;-86
2021/01/06 13:47:45;;;;;;;5.53;4.95;;;3.60;1.00;;;;;;4927477;29;20230;-85
2021/01/06 13:50:33;;;;;;;4.45;4.05;;;3.60;1.00;;;;;;4927384;29;20513;-85
2021/01/06 13:53:16;;;;;;;4.95;4.45;;;3.60;1.00;;;;;;4928637;29;20238;-85
2021/01/06 13:55:48;;;;;;;3.55;3.25;;;3.50;1.00;;;;;;4931105;29;20238;-84
2021/01/06 13:58:21;;;;;;;4.72;3.20;;;3.50;1.00;;;;;;4924820;29;20219;-85
2021/01/06 14:00:53;;;;;;;3.83;3.53;;;3.40;1.00;;;;;;4927798;29;20223;-84
2021/01/06 14:03:35;;;;;;;3.70;3.40;;;3.40;1.00;;;;;;4929804;29;20238;-84